sensor_id;sensor_type;location;lat;lon;timestamp;pressure;altitude;pressure_sealevel;temperature;humidity
55315;BME280;41619;42.816;23.226;2022-08-01T00:00:12;95405.13;;;16.14;66.72
55315;BME280;41619;42.816;23.226;2022-08-01T00:02:37;95407.50;;;16.12;66.90
55315;BME280;41619;42.816;23.226;2022-08-01T00:05:03;95416.56;;;16.13;67.14
55315;BME280;41619;42.816;23.226;2022-08-01T00:07:31;95411.06;;;16.09;66.86
55315;BME280;41619;42.816;23.226;2022-08-01T00:09:57;95412.25;;;16.08;66.94
55315;BME280;41619;42.816;23.226;2022-08-01T00:12:22;95413.44;;;16.07;67.11
55315;BME280;41619;42.816;23.226;2022-08-01T00:14:47;95413.84;;;16.05;67.08
55315;BME280;41619;42.816;23.226;2022-08-01T00:17:13;95412.69;;;16.03;67.14
55315;BME280;41619;42.816;23.226;2022-08-01T00:19:38;95405.22;;;16.00;67.29
55315;BME280;41619;42.816;23.226;2022-08-01T00:22:03;95404.44;;;15.99;67.30
55315;BME280;41619;42.816;23.226;2022-08-01T00:24:29;95410.31;;;15.98;67.23
55315;BME280;41619;42.816;23.226;2022-08-01T00:26:54;95406.38;;;15.95;67.38
55315;BME280;41619;42.816;23.226;2022-08-01T00:29:20;95404.03;;;15.94;67.57
55315;BME280;41619;42.816;23.226;2022-08-01T00:31:45;95400.09;;;15.95;67.58
55315;BME280;41619;42.816;23.226;2022-08-01T00:34:10;95395.34;;;15.95;67.49
55315;BME280;41619;42.816;23.226;2022-08-01T00:36:36;95407.19;;;15.92;67.54
55315;BME280;41619;42.816;23.226;2022-08-01T00:39:02;95401.28;;;15.90;67.56
55315;BME280;41619;42.816;23.226;2022-08-01T00:41:27;95394.22;;;15.86;67.45
55315;BME280;41619;42.816;23.226;2022-08-01T00:43:53;95398.97;;;15.78;67.68
55315;BME280;41619;42.816;23.226;2022-08-01T00:46:19;95391.50;;;15.75;67.72
55315;BME280;41619;42.816;23.226;2022-08-01T00:48:44;95392.69;;;15.70;67.86
55315;BME280;41619;42.816;23.226;2022-08-01T00:51:10;95389.97;;;15.63;67.83
55315;BME280;41619;42.816;23.226;2022-08-01T00:53:35;95390.72;;;15.57;67.98
55315;BME280;41619;42.816;23.226;2022-08-01T00:56:01;95390.75;;;15.50;68.11
55315;BME280;41619;42.816;23.226;2022-08-01T00:58:26;95387.63;;;15.44;68.21
55315;BME280;41619;42.816;23.226;2022-08-01T01:00:54;95381.31;;;15.40;68.33
55315;BME280;41619;42.816;23.226;2022-08-01T01:03:21;95377.78;;;15.36;68.42
55315;BME280;41619;42.816;23.226;2022-08-01T01:08:37;95377.03;;;15.28;68.54
55315;BME280;41619;42.816;23.226;2022-08-01T01:11:10;95375.06;;;15.25;68.65
55315;BME280;41619;42.816;23.226;2022-08-01T01:13:47;95380.97;;;15.24;68.66
55315;BME280;41619;42.816;23.226;2022-08-01T01:16:17;95382.53;;;15.21;68.75
55315;BME280;41619;42.816;23.226;2022-08-01T01:18:50;95362.09;;;15.15;69.00
55315;BME280;41619;42.816;23.226;2022-08-01T01:29:41;95364.44;;;15.06;69.06
55315;BME280;41619;42.816;23.226;2022-08-01T01:32:24;95369.56;;;15.04;69.30
55315;BME280;41619;42.816;23.226;2022-08-01T01:34:54;95364.84;;;15.01;69.38
55315;BME280;41619;42.816;23.226;2022-08-01T01:37:21;95361.72;;;15.02;69.33
55315;BME280;41619;42.816;23.226;2022-08-01T01:39:49;95364.47;;;15.02;69.59
55315;BME280;41619;42.816;23.226;2022-08-01T01:42:17;95360.91;;;15.02;69.47
55315;BME280;41619;42.816;23.226;2022-08-01T01:44:48;95355.00;;;15.03;69.47
55315;BME280;41619;42.816;23.226;2022-08-01T01:47:16;95349.50;;;15.03;69.33
55315;BME280;41619;42.816;23.226;2022-08-01T01:49:44;95355.81;;;15.00;69.36
55315;BME280;41619;42.816;23.226;2022-08-01T01:52:11;95348.34;;;14.97;69.24
55315;BME280;41619;42.816;23.226;2022-08-01T01:54:40;95336.53;;;14.93;69.29
55315;BME280;41619;42.816;23.226;2022-08-01T01:57:10;95342.84;;;14.90;69.73
55315;BME280;41619;42.816;23.226;2022-08-01T01:59:38;95338.09;;;14.87;69.49
55315;BME280;41619;42.816;23.226;2022-08-01T02:02:05;95340.84;;;14.87;69.55
55315;BME280;41619;42.816;23.226;2022-08-01T02:04:32;95350.72;;;14.88;69.46
55315;BME280;41619;42.816;23.226;2022-08-01T02:07:01;95356.59;;;14.87;69.69
55315;BME280;41619;42.816;23.226;2022-08-01T02:09:28;95357.41;;;14.83;69.67
55315;BME280;41619;42.816;23.226;2022-08-01T02:11:55;95354.66;;;14.80;69.73
55315;BME280;41619;42.816;23.226;2022-08-01T02:14:22;95355.84;;;14.75;69.70
55315;BME280;41619;42.816;23.226;2022-08-01T02:16:49;95350.72;;;14.74;69.79
55315;BME280;41619;42.816;23.226;2022-08-01T02:19:17;95351.50;;;14.71;69.86
55315;BME280;41619;42.816;23.226;2022-08-01T02:21:48;95358.19;;;14.73;69.92
55315;BME280;41619;42.816;23.226;2022-08-01T02:24:40;95366.47;;;14.73;70.12
55315;BME280;41619;42.816;23.226;2022-08-01T02:27:34;95362.13;;;14.72;69.55
55315;BME280;41619;42.816;23.226;2022-08-01T02:30:06;95354.66;;;14.73;69.66
55315;BME280;41619;42.816;23.226;2022-08-01T02:32:43;95351.13;;;14.72;69.71
55315;BME280;41619;42.816;23.226;2022-08-01T02:35:13;95349.56;;;14.71;69.74
55315;BME280;41619;42.816;23.226;2022-08-01T02:37:41;95347.56;;;14.72;69.72
55315;BME280;41619;42.816;23.226;2022-08-01T02:40:08;95357.81;;;14.75;69.80
55315;BME280;41619;42.816;23.226;2022-08-01T02:42:37;95345.59;;;14.72;69.70
55315;BME280;41619;42.816;23.226;2022-08-01T02:45:04;95342.06;;;14.72;69.66
55315;BME280;41619;42.816;23.226;2022-08-01T02:47:34;95338.13;;;14.69;69.93
55315;BME280;41619;42.816;23.226;2022-08-01T02:50:02;95349.53;;;14.68;69.79
55315;BME280;41619;42.816;23.226;2022-08-01T02:52:28;95335.38;;;14.66;69.84
55315;BME280;41619;42.816;23.226;2022-08-01T02:54:56;95345.19;;;14.63;69.72
55315;BME280;41619;42.816;23.226;2022-08-01T02:57:24;95344.03;;;14.61;69.96
55315;BME280;41619;42.816;23.226;2022-08-01T02:59:51;95358.19;;;14.59;69.73
55315;BME280;41619;42.816;23.226;2022-08-01T03:02:18;95357.41;;;14.59;70.08
55315;BME280;41619;42.816;23.226;2022-08-01T03:04:45;95347.97;;;14.56;70.00
55315;BME280;41619;42.816;23.226;2022-08-01T03:07:12;95353.09;;;14.54;70.09
55315;BME280;41619;42.816;23.226;2022-08-01T03:09:43;95347.97;;;14.52;69.97
55315;BME280;41619;42.816;23.226;2022-08-01T03:12:13;95348.34;;;14.47;70.09
55315;BME280;41619;42.816;23.226;2022-08-01T03:14:42;95342.41;;;14.42;70.06
55315;BME280;41619;42.816;23.226;2022-08-01T03:17:08;95345.56;;;14.40;70.18
55315;BME280;41619;42.816;23.226;2022-08-01T03:19:35;95345.97;;;14.39;70.54
55315;BME280;41619;42.816;23.226;2022-08-01T03:22:06;95340.84;;;14.34;70.22
55315;BME280;41619;42.816;23.226;2022-08-01T03:24:34;95340.81;;;14.30;70.59
55315;BME280;41619;42.816;23.226;2022-08-01T03:27:02;95343.56;;;14.27;70.55
55315;BME280;41619;42.816;23.226;2022-08-01T03:29:29;95340.44;;;14.24;70.24
55315;BME280;41619;42.816;23.226;2022-08-01T03:31:55;95343.56;;;14.23;70.63
55315;BME280;41619;42.816;23.226;2022-08-01T03:34:22;95352.63;;;14.23;70.69
55315;BME280;41619;42.816;23.226;2022-08-01T03:37:09;95353.00;;;14.22;70.46
55315;BME280;41619;42.816;23.226;2022-08-01T03:40:04;95352.22;;;14.21;70.44
55315;BME280;41619;42.816;23.226;2022-08-01T03:42:37;95360.50;;;14.21;70.62
55315;BME280;41619;42.816;23.226;2022-08-01T03:45:07;95353.00;;;14.22;70.48
55315;BME280;41619;42.816;23.226;2022-08-01T03:47:38;95349.88;;;14.23;70.78
55315;BME280;41619;42.816;23.226;2022-08-01T03:50:08;95358.53;;;14.25;70.49
55315;BME280;41619;42.816;23.226;2022-08-01T03:52:38;95357.34;;;14.27;70.32
55315;BME280;41619;42.816;23.226;2022-08-01T03:55:06;95360.88;;;14.27;70.41
55315;BME280;41619;42.816;23.226;2022-08-01T03:57:33;95356.94;;;14.28;70.65
55315;BME280;41619;42.816;23.226;2022-08-01T03:59:59;95356.16;;;14.28;70.25
55315;BME280;41619;42.816;23.226;2022-08-01T04:02:29;95351.06;;;14.26;70.62
55315;BME280;41619;42.816;23.226;2022-08-01T04:04:55;95358.53;;;14.25;70.60
55315;BME280;41619;42.816;23.226;2022-08-01T04:07:25;95370.31;;;14.26;70.53
55315;BME280;41619;42.816;23.226;2022-08-01T04:09:51;95358.91;;;14.28;70.56
55315;BME280;41619;42.816;23.226;2022-08-01T04:12:17;95364.81;;;14.30;70.48
55315;BME280;41619;42.816;23.226;2022-08-01T04:14:42;95369.16;;;14.34;70.76
55315;BME280;41619;42.816;23.226;2022-08-01T04:17:08;95371.53;;;14.39;70.64
55315;BME280;41619;42.816;23.226;2022-08-01T04:19:33;95364.09;;;14.43;70.57
55315;BME280;41619;42.816;23.226;2022-08-01T04:21:59;95364.06;;;14.47;70.55
55315;BME280;41619;42.816;23.226;2022-08-01T04:24:26;95364.09;;;14.50;70.11
55315;BME280;41619;42.816;23.226;2022-08-01T04:26:56;95373.16;;;14.58;70.21
55315;BME280;41619;42.816;23.226;2022-08-01T04:29:24;95384.16;;;14.65;70.32
55315;BME280;41619;42.816;23.226;2022-08-01T04:31:53;95383.78;;;14.70;70.34
55315;BME280;41619;42.816;23.226;2022-08-01T04:34:21;95386.94;;;14.76;70.21
55315;BME280;41619;42.816;23.226;2022-08-01T04:36:50;95382.19;;;14.83;70.18
55315;BME280;41619;42.816;23.226;2022-08-01T04:39:17;95378.66;;;14.90;70.00
55315;BME280;41619;42.816;23.226;2022-08-01T04:41:45;95385.34;;;14.96;69.70
55315;BME280;41619;42.816;23.226;2022-08-01T04:44:13;95392.03;;;15.02;69.60
55315;BME280;41619;42.816;23.226;2022-08-01T04:46:39;95377.47;;;15.09;69.46
55315;BME280;41619;42.816;23.226;2022-08-01T04:49:06;95375.88;;;15.15;69.26
55315;BME280;41619;42.816;23.226;2022-08-01T04:51:34;95374.28;;;15.25;69.39
55315;BME280;41619;42.816;23.226;2022-08-01T04:53:59;95370.72;;;15.31;69.17
55315;BME280;41619;42.816;23.226;2022-08-01T04:56:26;95364.38;;;15.38;68.97
55315;BME280;41619;42.816;23.226;2022-08-01T04:58:52;95356.91;;;15.45;69.02
55315;BME280;41619;42.816;23.226;2022-08-01T05:01:38;95367.50;;;15.54;68.56
55315;BME280;41619;42.816;23.226;2022-08-01T05:04:03;95369.47;;;15.64;68.41
55315;BME280;41619;42.816;23.226;2022-08-01T05:06:29;95373.38;;;15.74;68.35
55315;BME280;41619;42.816;23.226;2022-08-01T05:08:54;95369.78;;;15.84;68.04
55315;BME280;41619;42.816;23.226;2022-08-01T05:11:19;95371.31;;;15.92;68.02
55315;BME280;41619;42.816;23.226;2022-08-01T05:13:47;95368.13;;;16.01;67.92
55315;BME280;41619;42.816;23.226;2022-08-01T05:16:13;95364.53;;;16.08;67.64
55315;BME280;41619;42.816;23.226;2022-08-01T05:18:38;95360.16;;;16.14;67.40
55315;BME280;41619;42.816;23.226;2022-08-01T05:21:03;95361.31;;;16.23;67.18
55315;BME280;41619;42.816;23.226;2022-08-01T05:23:29;95366.78;;;16.30;66.95
55315;BME280;41619;42.816;23.226;2022-08-01T05:25:54;95363.56;;;16.39;66.87
55315;BME280;41619;42.816;23.226;2022-08-01T05:28:19;95372.59;;;16.47;66.68
55315;BME280;41619;42.816;23.226;2022-08-01T05:30:45;95380.44;;;16.55;66.64
55315;BME280;41619;42.816;23.226;2022-08-01T05:33:10;95371.69;;;16.64;66.46
55315;BME280;41619;42.816;23.226;2022-08-01T05:35:36;95368.88;;;16.71;66.21
55315;BME280;41619;42.816;23.226;2022-08-01T05:38:01;95364.88;;;16.79;65.92
55315;BME280;41619;42.816;23.226;2022-08-01T05:40:26;95373.09;;;16.86;65.72
55315;BME280;41619;42.816;23.226;2022-08-01T05:42:52;95373.06;;;16.93;65.54
55315;BME280;41619;42.816;23.226;2022-08-01T05:45:18;95367.41;;;17.04;65.48
55315;BME280;41619;42.816;23.226;2022-08-01T05:47:43;95378.81;;;17.13;64.95
55315;BME280;41619;42.816;23.226;2022-08-01T05:50:08;95377.91;;;17.23;64.84
55315;BME280;41619;42.816;23.226;2022-08-01T05:52:34;95377.41;;;17.36;64.53
55315;BME280;41619;42.816;23.226;2022-08-01T05:54:59;95371.75;;;17.46;64.35
55315;BME280;41619;42.816;23.226;2022-08-01T05:57:25;95371.63;;;17.57;64.07
55315;BME280;41619;42.816;23.226;2022-08-01T05:59:50;95364.03;;;17.68;63.34
55315;BME280;41619;42.816;23.226;2022-08-01T06:02:16;95363.06;;;17.82;63.09
55315;BME280;41619;42.816;23.226;2022-08-01T06:04:41;95360.53;;;17.95;62.71
55315;BME280;41619;42.816;23.226;2022-08-01T06:07:07;95359.59;;;18.08;62.48
55315;BME280;41619;42.816;23.226;2022-08-01T06:09:32;95360.19;;;18.20;62.64
55315;BME280;41619;42.816;23.226;2022-08-01T06:11:58;95369.53;;;18.33;62.31
55315;BME280;41619;42.816;23.226;2022-08-01T06:14:23;95360.59;;;18.49;61.72
55315;BME280;41619;42.816;23.226;2022-08-01T06:16:48;95356.84;;;18.62;60.91
55315;BME280;41619;42.816;23.226;2022-08-01T06:19:14;95351.50;;;18.75;60.50
55315;BME280;41619;42.816;23.226;2022-08-01T06:21:39;95355.25;;;18.88;60.23
55315;BME280;41619;42.816;23.226;2022-08-01T06:24:05;95347.13;;;19.01;59.78
55315;BME280;41619;42.816;23.226;2022-08-01T06:26:30;95349.25;;;19.13;59.63
55315;BME280;41619;42.816;23.226;2022-08-01T06:28:56;95347.09;;;19.24;58.98
55315;BME280;41619;42.816;23.226;2022-08-01T06:31:21;95337.38;;;19.36;58.51
55315;BME280;41619;42.816;23.226;2022-08-01T06:33:47;95339.94;;;19.47;58.33
55315;BME280;41619;42.816;23.226;2022-08-01T06:36:12;95338.91;;;19.60;57.72
55315;BME280;41619;42.816;23.226;2022-08-01T06:38:38;95338.28;;;19.73;57.38
55315;BME280;41619;42.816;23.226;2022-08-01T06:41:03;95336.06;;;19.84;56.94
55315;BME280;41619;42.816;23.226;2022-08-01T06:43:29;95334.66;;;19.95;56.38
55315;BME280;41619;42.816;23.226;2022-08-01T06:45:54;95335.19;;;20.07;55.62
55315;BME280;41619;42.816;23.226;2022-08-01T06:48:19;95317.94;;;20.15;55.03
55315;BME280;41619;42.816;23.226;2022-08-01T06:50:45;95312.56;;;20.24;54.66
55315;BME280;41619;42.816;23.226;2022-08-01T06:53:10;95319.91;;;20.35;54.58
55315;BME280;41619;42.816;23.226;2022-08-01T06:55:36;95318.88;;;20.45;54.11
55315;BME280;41619;42.816;23.226;2022-08-01T06:58:01;95313.09;;;20.55;53.86
55315;BME280;41619;42.816;23.226;2022-08-01T07:00:27;95307.63;;;20.68;53.67
55315;BME280;41619;42.816;23.226;2022-08-01T07:02:55;95301.78;;;20.79;52.77
55315;BME280;41619;42.816;23.226;2022-08-01T07:05:22;95293.63;;;20.88;52.60
55315;BME280;41619;42.816;23.226;2022-08-01T07:07:48;95296.13;;;20.99;52.29
55315;BME280;41619;42.816;23.226;2022-08-01T07:10:13;95307.31;;;21.11;52.03
55315;BME280;41619;42.816;23.226;2022-08-01T07:12:39;95303.06;;;21.23;51.86
55315;BME280;41619;42.816;23.226;2022-08-01T07:15:07;95302.78;;;21.34;51.78
55315;BME280;41619;42.816;23.226;2022-08-01T07:17:38;95309.19;;;21.47;51.64
55315;BME280;41619;42.816;23.226;2022-08-01T07:20:05;95308.47;;;21.59;51.23
55315;BME280;41619;42.816;23.226;2022-08-01T07:22:31;95307.72;;;21.71;50.75
55315;BME280;41619;42.816;23.226;2022-08-01T07:24:56;95303.84;;;21.82;50.41
55315;BME280;41619;42.816;23.226;2022-08-01T07:27:22;95299.50;;;21.93;50.15
55315;BME280;41619;42.816;23.226;2022-08-01T07:29:47;95298.44;;;22.03;49.93
55315;BME280;41619;42.816;23.226;2022-08-01T07:32:12;95302.50;;;22.15;49.54
55315;BME280;41619;42.816;23.226;2022-08-01T07:34:38;95295.47;;;22.23;48.97
55315;BME280;41619;42.816;23.226;2022-08-01T07:37:03;95297.25;;;22.30;48.65
55315;BME280;41619;42.816;23.226;2022-08-01T07:39:28;95290.25;;;22.38;48.40
55315;BME280;41619;42.816;23.226;2022-08-01T07:41:54;95301.03;;;22.49;48.24
55315;BME280;41619;42.816;23.226;2022-08-01T07:44:20;95299.16;;;22.58;47.65
55315;BME280;41619;42.816;23.226;2022-08-01T07:46:45;95295.25;;;22.69;47.30
55315;BME280;41619;42.816;23.226;2022-08-01T07:49:11;95289.31;;;22.79;47.11
55315;BME280;41619;42.816;23.226;2022-08-01T07:51:36;95295.03;;;22.88;46.81
55315;BME280;41619;42.816;23.226;2022-08-01T07:54:03;95283.81;;;23.01;46.44
55315;BME280;41619;42.816;23.226;2022-08-01T07:56:28;95283.47;;;23.12;46.08
55315;BME280;41619;42.816;23.226;2022-08-01T07:58:54;95297.28;;;23.28;46.42
55315;BME280;41619;42.816;23.226;2022-08-01T08:01:19;95292.31;;;23.45;46.18
55315;BME280;41619;42.816;23.226;2022-08-01T08:03:44;95283.75;;;23.61;45.47
55315;BME280;41619;42.816;23.226;2022-08-01T08:06:10;95286.94;;;23.72;45.41
55315;BME280;41619;42.816;23.226;2022-08-01T08:08:35;95288.91;;;23.84;44.92
55315;BME280;41619;42.816;23.226;2022-08-01T08:11:01;95284.59;;;23.93;44.75
55315;BME280;41619;42.816;23.226;2022-08-01T08:13:26;95283.75;;;24.05;44.39
55315;BME280;41619;42.816;23.226;2022-08-01T08:15:52;95293.25;;;24.16;43.76
55315;BME280;41619;42.816;23.226;2022-08-01T08:18:17;95295.22;;;24.29;43.45
55315;BME280;41619;42.816;23.226;2022-08-01T08:20:43;95284.91;;;24.48;43.42
55315;BME280;41619;42.816;23.226;2022-08-01T08:23:09;95290.88;;;24.59;42.65
55315;BME280;41619;42.816;23.226;2022-08-01T08:25:53;95287.00;;;24.65;42.63
55315;BME280;41619;42.816;23.226;2022-08-01T08:28:18;95287.81;;;24.75;42.63
55315;BME280;41619;42.816;23.226;2022-08-01T08:30:44;95293.88;;;24.83;42.15
55315;BME280;41619;42.816;23.226;2022-08-01T08:33:09;95285.34;;;24.86;42.15
55315;BME280;41619;42.816;23.226;2022-08-01T08:35:35;95284.28;;;24.93;41.58
55315;BME280;41619;42.816;23.226;2022-08-01T08:38:00;95293.31;;;24.97;41.33
55315;BME280;41619;42.816;23.226;2022-08-01T08:40:29;95290.56;;;25.06;41.33
55315;BME280;41619;42.816;23.226;2022-08-01T08:42:55;95284.34;;;25.20;41.25
55315;BME280;41619;42.816;23.226;2022-08-01T08:45:21;95283.28;;;25.36;40.98
55315;BME280;41619;42.816;23.226;2022-08-01T08:47:47;95285.75;;;25.43;40.07
55315;BME280;41619;42.816;23.226;2022-08-01T08:50:15;95292.94;;;25.53;40.28
55315;BME280;41619;42.816;23.226;2022-08-01T08:52:42;95277.88;;;25.69;39.50
55315;BME280;41619;42.816;23.226;2022-08-01T08:55:08;95283.75;;;25.80;39.69
55315;BME280;41619;42.816;23.226;2022-08-01T08:57:39;95282.19;;;25.98;39.73
55315;BME280;41619;42.816;23.226;2022-08-01T09:00:05;95284.19;;;26.06;39.15
55315;BME280;41619;42.816;23.226;2022-08-01T09:02:31;95276.69;;;26.12;38.95
55315;BME280;41619;42.816;23.226;2022-08-01T09:04:57;95272.78;;;26.19;38.43
55315;BME280;41619;42.816;23.226;2022-08-01T09:07:22;95273.06;;;26.21;37.99
55315;BME280;41619;42.816;23.226;2022-08-01T09:09:50;95264.53;;;26.15;37.66
55315;BME280;41619;42.816;23.226;2022-08-01T09:12:17;95260.00;;;26.18;37.56
55315;BME280;41619;42.816;23.226;2022-08-01T09:14:47;95262.91;;;26.33;37.40
55315;BME280;41619;42.816;23.226;2022-08-01T09:17:12;95259.34;;;26.41;37.33
55315;BME280;41619;42.816;23.226;2022-08-01T09:19:43;95256.13;;;26.58;37.37
55315;BME280;41619;42.816;23.226;2022-08-01T09:22:12;95257.94;;;26.79;37.47
55315;BME280;41619;42.816;23.226;2022-08-01T09:24:38;95257.03;;;26.97;37.01
55315;BME280;41619;42.816;23.226;2022-08-01T09:27:19;95250.59;;;27.05;36.64
55315;BME280;41619;42.816;23.226;2022-08-01T09:29:45;95251.94;;;27.19;36.64
55315;BME280;41619;42.816;23.226;2022-08-01T09:32:11;95249.63;;;27.32;36.11
55315;BME280;41619;42.816;23.226;2022-08-01T09:34:36;95251.84;;;27.28;35.95
55315;BME280;41619;42.816;23.226;2022-08-01T09:37:02;95255.09;;;27.36;36.08
55315;BME280;41619;42.816;23.226;2022-08-01T09:39:33;95251.22;;;27.48;35.65
55315;BME280;41619;42.816;23.226;2022-08-01T09:42:18;95254.25;;;27.59;34.93
55315;BME280;41619;42.816;23.226;2022-08-01T09:44:44;95255.28;;;27.71;35.42
55315;BME280;41619;42.816;23.226;2022-08-01T09:47:11;95259.66;;;27.87;35.12
55315;BME280;41619;42.816;23.226;2022-08-01T09:49:38;95249.09;;;27.96;34.59
55315;BME280;41619;42.816;23.226;2022-08-01T09:52:14;95249.66;;;28.00;34.35
55315;BME280;41619;42.816;23.226;2022-08-01T09:54:40;95252.91;;;28.08;34.83
55315;BME280;41619;42.816;23.226;2022-08-01T09:57:11;95253.97;;;28.11;34.00
55315;BME280;41619;42.816;23.226;2022-08-01T09:59:39;95254.72;;;28.26;34.16
55315;BME280;41619;42.816;23.226;2022-08-01T10:02:10;95247.16;;;28.47;33.63
55315;BME280;41619;42.816;23.226;2022-08-01T10:04:46;95254.13;;;28.51;33.53
55315;BME280;41619;42.816;23.226;2022-08-01T10:07:12;95247.81;;;28.56;33.59
55315;BME280;41619;42.816;23.226;2022-08-01T10:09:41;95243.97;;;28.74;34.21
55315;BME280;41619;42.816;23.226;2022-08-01T10:12:07;95237.06;;;28.90;33.29
55315;BME280;41619;42.816;23.226;2022-08-01T10:14:33;95253.69;;;28.88;33.13
55315;BME280;41619;42.816;23.226;2022-08-01T10:17:01;95251.16;;;28.75;33.22
55315;BME280;41619;42.816;23.226;2022-08-01T10:19:28;95238.72;;;28.82;33.30
55315;BME280;41619;42.816;23.226;2022-08-01T10:21:56;95236.50;;;28.86;33.00
55315;BME280;41619;42.816;23.226;2022-08-01T10:24:23;95233.56;;;28.95;33.50
55315;BME280;41619;42.816;23.226;2022-08-01T10:26:52;95239.75;;;28.99;32.99
55315;BME280;41619;42.816;23.226;2022-08-01T10:29:20;95235.25;;;28.72;33.10
55315;BME280;41619;42.816;23.226;2022-08-01T10:31:47;95238.06;;;28.72;33.72
55315;BME280;41619;42.816;23.226;2022-08-01T10:34:15;95241.94;;;28.75;33.34
55315;BME280;41619;42.816;23.226;2022-08-01T10:36:44;95235.31;;;28.78;33.11
55315;BME280;41619;42.816;23.226;2022-08-01T10:39:44;95238.91;;;28.78;33.14
55315;BME280;41619;42.816;23.226;2022-08-01T10:42:11;95236.38;;;28.80;33.28
55315;BME280;41619;42.816;23.226;2022-08-01T10:44:38;95232.00;;;28.94;33.70
55315;BME280;41619;42.816;23.226;2022-08-01T10:47:09;95221.50;;;28.94;32.71
55315;BME280;41619;42.816;23.226;2022-08-01T10:49:48;95231.00;;;28.97;33.39
55315;BME280;41619;42.816;23.226;2022-08-01T10:52:17;95222.00;;;28.93;32.80
55315;BME280;41619;42.816;23.226;2022-08-01T10:54:42;95230.13;;;29.06;33.33
55315;BME280;41619;42.816;23.226;2022-08-01T10:57:08;95224.13;;;29.18;32.82
55315;BME280;41619;42.816;23.226;2022-08-01T10:59:36;95217.78;;;29.23;33.25
55315;BME280;41619;42.816;23.226;2022-08-01T11:02:27;95224.28;;;29.30;32.61
55315;BME280;41619;42.816;23.226;2022-08-01T11:05:07;95224.28;;;29.30;32.50
55315;BME280;41619;42.816;23.226;2022-08-01T11:07:54;95222.88;;;29.40;32.81
55315;BME280;41619;42.816;23.226;2022-08-01T11:10:40;95223.78;;;29.51;32.54
55315;BME280;41619;42.816;23.226;2022-08-01T11:13:08;95213.91;;;29.62;32.16
55315;BME280;41619;42.816;23.226;2022-08-01T11:15:37;95215.00;;;29.70;32.46
55315;BME280;41619;42.816;23.226;2022-08-01T11:20:58;95209.13;;;29.94;31.96
55315;BME280;41619;42.816;23.226;2022-08-01T11:23:26;95205.13;;;30.06;32.01
55315;BME280;41619;42.816;23.226;2022-08-01T11:28:36;95204.63;;;30.07;32.04
55315;BME280;41619;42.816;23.226;2022-08-01T11:41:12;95195.19;;;29.90;31.77
55315;BME280;41619;42.816;23.226;2022-08-01T11:52:06;95191.13;;;30.17;31.66
55315;BME280;41619;42.816;23.226;2022-08-01T11:57:05;95192.41;;;30.16;31.15
55315;BME280;41619;42.816;23.226;2022-08-01T11:59:42;95187.69;;;30.07;30.95
55315;BME280;41619;42.816;23.226;2022-08-01T12:02:30;95181.72;;;30.00;30.68
55315;BME280;41619;42.816;23.226;2022-08-01T12:07:25;95191.34;;;29.88;31.22
55315;BME280;41619;42.816;23.226;2022-08-01T12:10:18;95189.19;;;29.77;31.89
55315;BME280;41619;42.816;23.226;2022-08-01T12:12:47;95192.13;;;29.88;31.58
55315;BME280;41619;42.816;23.226;2022-08-01T12:15:15;95193.72;;;29.95;31.53
55315;BME280;41619;42.816;23.226;2022-08-01T12:17:45;95181.97;;;30.02;31.92
55315;BME280;41619;42.816;23.226;2022-08-01T12:20:13;95174.75;;;29.95;31.95
55315;BME280;41619;42.816;23.226;2022-08-01T12:22:39;95183.41;;;29.92;31.91
55315;BME280;41619;42.816;23.226;2022-08-01T12:27:32;95184.38;;;29.83;31.44
55315;BME280;41619;42.816;23.226;2022-08-01T12:29:58;95175.13;;;29.82;31.05
55315;BME280;41619;42.816;23.226;2022-08-01T12:32:32;95184.09;;;29.81;30.95
55315;BME280;41619;42.816;23.226;2022-08-01T12:35:22;95175.28;;;29.73;31.33
55315;BME280;41619;42.816;23.226;2022-08-01T12:38:01;95178.88;;;29.74;31.58
55315;BME280;41619;42.816;23.226;2022-08-01T12:40:32;95173.88;;;29.83;31.60
55315;BME280;41619;42.816;23.226;2022-08-01T12:43:04;95170.81;;;29.87;31.02
55315;BME280;41619;42.816;23.226;2022-08-01T12:45:40;95178.03;;;29.62;31.05
55315;BME280;41619;42.816;23.226;2022-08-01T12:48:12;95166.19;;;29.38;31.72
55315;BME280;41619;42.816;23.226;2022-08-01T12:50:43;95169.66;;;29.27;31.52
55315;BME280;41619;42.816;23.226;2022-08-01T12:53:09;95168.69;;;29.30;32.21
55315;BME280;41619;42.816;23.226;2022-08-01T12:55:51;95165.41;;;29.37;32.50
55315;BME280;41619;42.816;23.226;2022-08-01T12:58:20;95167.91;;;29.30;32.38
55315;BME280;41619;42.816;23.226;2022-08-01T13:00:47;95167.44;;;29.11;32.81
55315;BME280;41619;42.816;23.226;2022-08-01T13:03:18;95152.13;;;28.97;32.72
55315;BME280;41619;42.816;23.226;2022-08-01T13:05:57;95162.84;;;28.93;32.92
55315;BME280;41619;42.816;23.226;2022-08-01T13:11:09;95157.47;;;28.75;33.36
55315;BME280;41619;42.816;23.226;2022-08-01T13:13:40;95158.25;;;28.75;33.09
55315;BME280;41619;42.816;23.226;2022-08-01T13:16:06;95155.41;;;28.75;33.34
55315;BME280;41619;42.816;23.226;2022-08-01T13:18:33;95146.75;;;28.79;32.60
55315;BME280;41619;42.816;23.226;2022-08-01T13:23:34;95151.63;;;28.78;33.25
55315;BME280;41619;42.816;23.226;2022-08-01T13:26:00;95158.88;;;28.64;32.92
55315;BME280;41619;42.816;23.226;2022-08-01T13:28:26;95153.28;;;28.50;33.25
55315;BME280;41619;42.816;23.226;2022-08-01T13:30:58;95152.63;;;28.40;33.82
55315;BME280;41619;42.816;23.226;2022-08-01T13:33:26;95148.75;;;28.23;33.52
55315;BME280;41619;42.816;23.226;2022-08-01T13:35:54;95154.72;;;28.10;33.73
55315;BME280;41619;42.816;23.226;2022-08-01T13:38:20;95148.41;;;28.00;33.45
55315;BME280;41619;42.816;23.226;2022-08-01T13:41:06;95145.72;;;27.91;33.99
55315;BME280;41619;42.816;23.226;2022-08-01T13:43:31;95143.28;;;27.84;33.89